createdAt,value
2018-07-31T00:00:31.780Z,18.58
2018-07-31T00:01:31.738Z,18.58
2018-07-31T00:02:31.719Z,18.69
2018-07-31T00:03:31.703Z,18.63
2018-07-31T00:04:31.637Z,18.62
2018-07-31T00:05:31.640Z,18.62
2018-07-31T00:06:31.584Z,18.62
2018-07-31T00:07:31.567Z,18.66
2018-07-31T00:08:31.523Z,18.52
2018-07-31T00:09:31.521Z,18.52
2018-07-31T00:10:31.493Z,18.47
2018-07-31T00:11:31.420Z,18.44
2018-07-31T00:12:31.402Z,18.37
2018-07-31T00:13:31.360Z,18.37
2018-07-31T00:14:31.323Z,18.37
2018-07-31T00:15:31.303Z,18.32
2018-07-31T00:16:31.260Z,18.25
2018-07-31T00:17:31.234Z,18.32
2018-07-31T00:18:31.201Z,18.25
2018-07-31T00:19:31.172Z,18.35
2018-07-31T00:20:31.128Z,18.30
2018-07-31T00:21:31.115Z,18.32
2018-07-31T00:22:31.102Z,18.23
2018-07-31T00:23:31.064Z,18.25
2018-07-31T00:24:31.011Z,18.23
2018-07-31T00:25:30.973Z,18.23
2018-07-31T00:26:30.950Z,18.25
2018-07-31T00:27:30.924Z,18.14
2018-07-31T00:28:30.911Z,18.15
2018-07-31T00:29:30.867Z,18.00
2018-07-31T00:30:30.821Z,18.00
2018-07-31T00:31:30.837Z,18.02
2018-07-31T00:32:30.758Z,18.12
2018-07-31T00:33:30.733Z,18.08
2018-07-31T00:34:30.697Z,18.15
2018-07-31T00:35:30.698Z,18.07
2018-07-31T00:36:30.633Z,18.14
2018-07-31T00:37:30.609Z,18.11
2018-07-31T00:38:30.578Z,18.15
2018-07-31T00:39:30.541Z,18.10
2018-07-31T00:40:30.490Z,18.18
2018-07-31T00:41:30.488Z,18.08
2018-07-31T00:42:30.432Z,18.05
2018-07-31T00:43:30.443Z,18.02
2018-07-31T00:44:30.372Z,17.97
2018-07-31T00:45:30.336Z,17.95
2018-07-31T00:46:30.331Z,17.99
2018-07-31T00:47:30.278Z,17.84
2018-07-31T00:48:30.244Z,17.92
2018-07-31T00:49:30.215Z,17.93
2018-07-31T00:50:30.167Z,17.87
2018-07-31T00:51:30.139Z,17.87
2018-07-31T00:52:30.117Z,17.78
2018-07-31T00:53:30.081Z,17.78
2018-07-31T00:54:30.060Z,17.72
2018-07-31T00:55:30.018Z,17.74
2018-07-31T00:56:30.035Z,17.77
2018-07-31T00:57:29.959Z,17.72
2018-07-31T00:58:29.914Z,17.71
2018-07-31T00:59:29.895Z,17.72
2018-07-31T01:00:29.850Z,17.75
2018-07-31T01:01:29.819Z,17.72
2018-07-31T01:02:29.791Z,17.75
2018-07-31T01:03:29.766Z,17.86
2018-07-31T01:04:29.755Z,17.89
2018-07-31T01:05:29.680Z,17.84
2018-07-31T01:06:29.737Z,17.82
2018-07-31T01:07:29.630Z,17.86
2018-07-31T01:08:29.598Z,17.87
2018-07-31T01:09:29.586Z,17.95
2018-07-31T01:10:29.545Z,17.82
2018-07-31T01:11:29.567Z,17.89
2018-07-31T01:12:29.483Z,17.78
2018-07-31T01:13:29.474Z,17.74
2018-07-31T01:14:29.412Z,17.75
2018-07-31T01:15:29.409Z,17.87
2018-07-31T01:16:29.349Z,17.89
2018-07-31T01:17:29.306Z,17.89
2018-07-31T01:18:29.275Z,17.96
2018-07-31T01:19:29.244Z,17.93
2018-07-31T01:20:29.216Z,17.95
2018-07-31T01:21:29.182Z,17.87
2018-07-31T01:22:29.152Z,17.87
2018-07-31T01:23:29.116Z,17.82
2018-07-31T01:24:29.081Z,17.78
2018-07-31T01:25:29.059Z,17.82
2018-07-31T01:26:29.058Z,17.81
2018-07-31T01:27:29.040Z,17.72
2018-07-31T01:28:28.956Z,17.79
2018-07-31T01:29:28.935Z,17.84
2018-07-31T01:30:28.940Z,17.74
2018-07-31T01:31:28.860Z,17.72
2018-07-31T01:32:28.835Z,17.78
2018-07-31T01:33:28.790Z,17.75
2018-07-31T01:34:28.758Z,17.74
2018-07-31T01:35:28.735Z,17.71
2018-07-31T01:36:28.695Z,17.79
2018-07-31T01:37:28.666Z,17.63
2018-07-31T01:38:28.632Z,17.62
2018-07-31T01:39:28.625Z,17.59
2018-07-31T01:40:28.633Z,17.54
2018-07-31T01:41:28.542Z,17.51
2018-07-31T01:42:28.497Z,17.51
2018-07-31T01:43:28.492Z,17.43
2018-07-31T01:44:28.450Z,17.56
2018-07-31T01:45:28.402Z,17.36
2018-07-31T01:46:28.401Z,17.51
2018-07-31T01:47:28.341Z,17.51
2018-07-31T01:48:28.333Z,17.59
2018-07-31T01:49:28.267Z,17.52
2018-07-31T01:50:28.240Z,17.51
2018-07-31T01:51:28.204Z,17.59
2018-07-31T01:52:28.188Z,17.52
2018-07-31T01:53:28.145Z,17.59
2018-07-31T01:54:28.107Z,17.58
2018-07-31T01:55:28.076Z,17.51
2018-07-31T01:56:28.054Z,17.49
2018-07-31T01:57:28.080Z,17.51
2018-07-31T01:58:28.007Z,17.58
2018-07-31T01:59:27.939Z,17.55
2018-07-31T02:00:27.907Z,17.59
2018-07-31T02:01:27.869Z,17.62
2018-07-31T02:02:27.866Z,17.55
2018-07-31T02:03:27.821Z,17.51
2018-07-31T02:04:27.777Z,17.56
2018-07-31T02:05:27.745Z,17.40
2018-07-31T02:06:27.720Z,17.38
2018-07-31T02:07:27.686Z,17.34
2018-07-31T02:08:27.667Z,17.33
2018-07-31T02:09:27.632Z,17.30
2018-07-31T02:10:27.598Z,17.22
2018-07-31T02:11:27.559Z,17.23
2018-07-31T02:12:27.521Z,17.16
2018-07-31T02:13:27.500Z,17.14
2018-07-31T02:14:27.450Z,17.15
2018-07-31T02:15:27.429Z,17.22
2018-07-31T02:16:27.451Z,17.19
2018-07-31T02:17:27.421Z,17.19
2018-07-31T02:18:27.359Z,17.23
2018-07-31T02:19:27.308Z,17.16
2018-07-31T02:20:27.261Z,17.14
2018-07-31T02:21:27.227Z,17.01
2018-07-31T02:22:27.203Z,17.08
2018-07-31T02:23:27.166Z,16.96
2018-07-31T02:24:27.147Z,16.96
2018-07-31T02:25:27.098Z,17.04
2018-07-31T02:26:27.078Z,17.04
2018-07-31T02:27:27.045Z,17.08
2018-07-31T02:28:27.027Z,17.11
2018-07-31T02:29:26.964Z,17.19
2018-07-31T02:30:26.941Z,17.22
2018-07-31T02:31:26.907Z,17.16
2018-07-31T02:32:26.871Z,17.07
2018-07-31T02:33:26.830Z,17.01
2018-07-31T02:34:26.812Z,17.07
2018-07-31T02:35:26.781Z,17.18
2018-07-31T02:36:26.756Z,17.19
2018-07-31T02:37:26.696Z,17.03
2018-07-31T02:38:26.687Z,17.01
2018-07-31T02:39:26.649Z,17.06
2018-07-31T02:40:26.607Z,16.97
2018-07-31T02:41:26.584Z,17.00
2018-07-31T02:42:26.535Z,16.97
2018-07-31T02:43:26.502Z,16.94
2018-07-31T02:44:26.480Z,17.00
2018-07-31T02:45:26.447Z,16.94
2018-07-31T02:46:26.395Z,16.98
2018-07-31T02:47:26.362Z,16.88
2018-07-31T02:48:26.344Z,16.94
2018-07-31T02:49:26.298Z,16.91
2018-07-31T02:50:26.285Z,16.83
2018-07-31T02:51:26.251Z,16.88
2018-07-31T02:52:26.228Z,16.85
2018-07-31T02:53:26.182Z,16.85
2018-07-31T02:54:26.144Z,16.97
2018-07-31T02:55:26.120Z,16.89
2018-07-31T02:56:26.146Z,16.89
2018-07-31T02:57:26.041Z,16.79
2018-07-31T02:58:26.015Z,16.78
2018-07-31T02:59:25.990Z,16.75
2018-07-31T03:00:25.940Z,16.75
2018-07-31T03:01:25.909Z,16.64
2018-07-31T03:02:25.901Z,16.81
2018-07-31T03:03:25.848Z,16.88
2018-07-31T03:04:25.818Z,16.79
2018-07-31T03:05:25.792Z,16.78
2018-07-31T03:06:25.826Z,16.82
2018-07-31T03:07:25.717Z,16.85
2018-07-31T03:08:25.680Z,16.82
2018-07-31T03:09:25.644Z,16.94
2018-07-31T03:10:25.617Z,16.83
2018-07-31T03:11:25.592Z,16.85
2018-07-31T03:12:25.568Z,16.97
2018-07-31T03:13:25.520Z,16.86
2018-07-31T03:14:25.480Z,16.93
2018-07-31T03:15:25.454Z,16.83
2018-07-31T03:16:25.476Z,16.83
2018-07-31T03:17:25.410Z,16.88
2018-07-31T03:18:25.350Z,16.83
2018-07-31T03:19:25.340Z,16.81
2018-07-31T03:20:25.341Z,16.82
2018-07-31T03:21:25.251Z,16.91
2018-07-31T03:22:25.242Z,16.86
2018-07-31T03:23:25.207Z,16.75
2018-07-31T03:24:25.157Z,16.81
2018-07-31T03:25:25.132Z,16.81
2018-07-31T03:26:25.093Z,16.76
2018-07-31T03:27:25.049Z,16.79
2018-07-31T03:28:25.022Z,16.79
2018-07-31T03:29:25.010Z,16.79
2018-07-31T03:30:24.958Z,16.73
2018-07-31T03:31:24.931Z,16.75
2018-07-31T03:32:24.886Z,16.68
2018-07-31T03:33:24.888Z,16.61
2018-07-31T03:34:24.844Z,16.64
2018-07-31T03:35:24.784Z,16.70
2018-07-31T03:36:25.835Z,16.75
2018-07-31T03:37:24.729Z,16.79
2018-07-31T03:38:24.692Z,16.82
2018-07-31T03:39:24.663Z,16.81
2018-07-31T03:40:24.622Z,16.81
2018-07-31T03:41:24.617Z,16.81
2018-07-31T03:42:24.584Z,16.81
2018-07-31T03:43:24.527Z,16.83
2018-07-31T03:44:24.533Z,16.82
2018-07-31T03:45:24.457Z,16.89
2018-07-31T03:46:24.441Z,16.96
2018-07-31T03:47:24.402Z,16.86
2018-07-31T03:48:24.362Z,16.96
2018-07-31T03:49:24.317Z,16.86
2018-07-31T03:50:24.300Z,16.89
2018-07-31T03:51:24.275Z,16.88
2018-07-31T03:52:24.236Z,16.97
2018-07-31T03:53:24.193Z,16.91
2018-07-31T03:54:24.169Z,16.91
2018-07-31T03:55:24.124Z,16.83
2018-07-31T03:56:24.221Z,16.96
2018-07-31T03:57:24.105Z,16.94
2018-07-31T03:58:24.041Z,16.94
2018-07-31T03:59:24.016Z,17.01
2018-07-31T04:00:23.991Z,16.93
2018-07-31T04:01:23.945Z,17.06
2018-07-31T04:02:23.899Z,17.04
2018-07-31T04:03:23.869Z,17.07
2018-07-31T04:04:23.834Z,17.19
2018-07-31T04:05:25.635Z,17.23
2018-07-31T04:06:23.772Z,17.22
2018-07-31T04:07:23.737Z,17.19
2018-07-31T04:08:23.713Z,17.22
2018-07-31T04:09:23.658Z,17.25
2018-07-31T04:10:23.628Z,17.21
2018-07-31T04:11:23.601Z,17.16
2018-07-31T04:12:23.564Z,17.16
2018-07-31T04:13:23.528Z,17.22
2018-07-31T04:14:23.491Z,17.25
2018-07-31T04:15:23.458Z,17.28
2018-07-31T04:16:23.532Z,17.23
2018-07-31T04:17:23.406Z,17.28
2018-07-31T04:18:23.393Z,17.26
2018-07-31T04:19:23.330Z,17.26
2018-07-31T04:20:23.291Z,17.30
2018-07-31T04:21:23.303Z,17.25
2018-07-31T04:22:23.562Z,17.28
2018-07-31T04:23:23.250Z,17.23
2018-07-31T04:24:23.166Z,17.26
2018-07-31T04:25:23.155Z,17.33
2018-07-31T04:26:23.096Z,17.34
2018-07-31T04:27:23.071Z,17.37
2018-07-31T04:28:23.045Z,17.36
2018-07-31T04:29:22.999Z,17.38
2018-07-31T04:30:22.969Z,17.52
2018-07-31T04:31:22.945Z,17.55
2018-07-31T04:32:22.916Z,17.51
2018-07-31T04:33:22.872Z,17.49
2018-07-31T04:34:22.846Z,17.63
2018-07-31T04:35:22.806Z,17.68
2018-07-31T04:36:22.771Z,17.59
2018-07-31T04:37:22.749Z,17.59
2018-07-31T04:38:22.711Z,17.56
2018-07-31T04:39:22.678Z,17.75
2018-07-31T04:40:22.748Z,17.71
2018-07-31T04:41:22.610Z,17.82
2018-07-31T04:42:22.630Z,17.79
2018-07-31T04:43:22.572Z,17.81
2018-07-31T04:44:22.505Z,17.81
2018-07-31T04:45:22.508Z,17.86
2018-07-31T04:46:22.433Z,17.89
2018-07-31T04:47:22.401Z,17.90
2018-07-31T04:48:22.380Z,18.00
2018-07-31T04:49:22.360Z,17.97
2018-07-31T04:50:22.349Z,17.99
2018-07-31T04:51:22.285Z,18.17
2018-07-31T04:52:22.252Z,18.18
2018-07-31T04:53:22.218Z,18.32
2018-07-31T04:54:22.180Z,18.32
2018-07-31T04:55:22.173Z,18.35
2018-07-31T04:56:22.114Z,18.42
2018-07-31T04:57:22.082Z,18.41
2018-07-31T04:58:22.042Z,18.51
2018-07-31T04:59:22.012Z,18.55
2018-07-31T05:00:22.013Z,18.65
2018-07-31T05:01:22.022Z,18.65
2018-07-31T05:02:21.917Z,18.76
2018-07-31T05:03:21.896Z,18.70
2018-07-31T05:04:21.890Z,18.80
2018-07-31T05:05:21.846Z,18.78
2018-07-31T05:06:21.802Z,18.82
2018-07-31T05:07:21.764Z,18.87
2018-07-31T05:08:21.738Z,18.98
2018-07-31T05:09:21.695Z,19.06
2018-07-31T05:10:21.680Z,19.07
2018-07-31T05:11:21.655Z,19.23
2018-07-31T05:12:21.625Z,19.40
2018-07-31T05:13:21.572Z,19.77
2018-07-31T05:14:21.548Z,19.86
2018-07-31T05:15:21.520Z,20.24
2018-07-31T05:16:21.461Z,20.62
2018-07-31T05:17:21.440Z,21.14
2018-07-31T05:18:21.450Z,21.49
2018-07-31T05:19:21.393Z,21.82
2018-07-31T05:20:21.340Z,22.33
2018-07-31T05:21:21.320Z,22.77
2018-07-31T05:22:21.279Z,23.36
2018-07-31T05:23:21.254Z,23.69
2018-07-31T05:24:21.221Z,24.15
2018-07-31T05:25:21.254Z,24.50
2018-07-31T05:26:21.175Z,24.68
2018-07-31T05:27:21.126Z,24.69
2018-07-31T05:28:21.106Z,24.18
2018-07-31T05:29:21.096Z,23.68
2018-07-31T05:30:21.044Z,23.23
2018-07-31T05:31:21.036Z,22.86
2018-07-31T05:32:21.000Z,22.54
2018-07-31T05:33:20.993Z,22.17
2018-07-31T05:34:20.929Z,22.03
2018-07-31T05:35:20.913Z,21.83
2018-07-31T05:36:20.861Z,21.80
2018-07-31T05:37:20.835Z,21.67
2018-07-31T05:38:20.801Z,21.64
2018-07-31T05:39:20.801Z,21.67
2018-07-31T05:40:20.756Z,21.62
2018-07-31T05:41:20.736Z,21.75
2018-07-31T05:42:20.699Z,21.69
2018-07-31T05:43:20.657Z,21.71
2018-07-31T05:44:20.627Z,21.83
2018-07-31T05:45:20.595Z,21.84
2018-07-31T05:46:20.588Z,21.84
2018-07-31T05:47:20.566Z,22.03
2018-07-31T05:48:20.520Z,22.10
2018-07-31T05:49:20.489Z,22.18
2018-07-31T05:50:20.464Z,22.10
2018-07-31T05:51:20.440Z,22.14
2018-07-31T05:52:20.395Z,22.12
2018-07-31T05:53:20.384Z,22.24
2018-07-31T05:54:20.339Z,22.18
2018-07-31T05:55:20.313Z,22.30
2018-07-31T05:56:20.292Z,22.25
2018-07-31T05:57:20.283Z,22.18
2018-07-31T05:58:20.231Z,22.31
2018-07-31T05:59:20.220Z,22.33
2018-07-31T06:00:20.163Z,22.39
2018-07-31T06:01:20.132Z,22.43
2018-07-31T06:02:20.111Z,22.43
2018-07-31T06:03:20.094Z,22.45
2018-07-31T06:04:20.071Z,22.60
2018-07-31T06:05:20.017Z,22.64
2018-07-31T06:06:20.008Z,22.70
2018-07-31T06:07:19.967Z,22.75
2018-07-31T06:08:19.933Z,22.75
2018-07-31T06:09:19.916Z,22.79
2018-07-31T06:10:19.865Z,22.88
2018-07-31T06:11:19.920Z,22.91
2018-07-31T06:12:19.814Z,23.00
2018-07-31T06:13:19.781Z,23.13
2018-07-31T06:14:19.764Z,23.10
2018-07-31T06:15:19.857Z,23.09
2018-07-31T06:16:19.706Z,23.16
2018-07-31T06:17:19.694Z,23.27
2018-07-31T06:18:19.703Z,23.28
2018-07-31T06:19:19.614Z,23.54
2018-07-31T06:20:19.593Z,23.63
2018-07-31T06:21:19.556Z,23.79
2018-07-31T06:22:19.533Z,24.03
2018-07-31T06:23:19.494Z,24.27
2018-07-31T06:24:19.466Z,24.40
2018-07-31T06:25:19.469Z,24.37
2018-07-31T06:26:19.407Z,24.39
2018-07-31T06:27:19.410Z,24.43
2018-07-31T06:28:19.352Z,24.52
2018-07-31T06:29:19.327Z,24.53
2018-07-31T06:30:19.305Z,24.76
2018-07-31T06:31:19.263Z,24.80
2018-07-31T06:32:19.253Z,24.81
2018-07-31T06:33:19.215Z,24.87
2018-07-31T06:34:19.188Z,24.99
2018-07-31T06:35:19.157Z,25.18
2018-07-31T06:36:19.118Z,25.24
2018-07-31T06:37:19.100Z,25.42
2018-07-31T06:38:19.078Z,25.51
2018-07-31T06:39:19.039Z,25.64
2018-07-31T06:40:19.029Z,25.83
2018-07-31T06:41:18.985Z,25.83
2018-07-31T06:42:18.955Z,25.97
2018-07-31T06:43:18.942Z,26.01
2018-07-31T06:44:18.907Z,26.05
2018-07-31T06:45:18.896Z,26.17
2018-07-31T06:46:18.855Z,26.26
2018-07-31T06:47:18.835Z,26.40
2018-07-31T06:48:18.795Z,26.48
2018-07-31T06:49:18.853Z,26.57
2018-07-31T06:50:18.740Z,26.60
2018-07-31T06:51:18.713Z,26.76
2018-07-31T06:52:18.690Z,26.80
2018-07-31T06:53:18.659Z,26.88
2018-07-31T06:54:18.649Z,27.06
2018-07-31T06:55:18.618Z,27.24
2018-07-31T06:56:18.571Z,27.54
2018-07-31T06:57:18.555Z,27.93
2018-07-31T06:58:18.529Z,28.48
2018-07-31T06:59:18.500Z,29.41
2018-07-31T07:00:18.480Z,30.31
2018-07-31T07:01:18.452Z,31.29
2018-07-31T07:02:18.419Z,32.07
2018-07-31T07:03:18.393Z,32.56
2018-07-31T07:04:18.365Z,33.28
2018-07-31T07:05:18.343Z,33.95
2018-07-31T07:06:18.321Z,34.52
2018-07-31T07:07:18.295Z,34.82
2018-07-31T07:08:18.286Z,35.04
2018-07-31T07:09:18.348Z,35.59
2018-07-31T07:10:18.227Z,36.00
2018-07-31T07:11:18.208Z,36.39
2018-07-31T07:12:18.214Z,36.51
2018-07-31T07:13:18.171Z,36.22
2018-07-31T07:14:18.142Z,36.38
2018-07-31T07:15:18.115Z,36.62
2018-07-31T07:16:18.126Z,36.66
2018-07-31T07:17:18.068Z,36.05
2018-07-31T07:18:18.058Z,36.27
2018-07-31T07:19:18.042Z,36.43
2018-07-31T07:20:18.061Z,36.71
2018-07-31T07:21:18.005Z,36.99
2018-07-31T07:22:17.970Z,36.98
2018-07-31T07:23:17.971Z,37.29
2018-07-31T07:24:17.926Z,37.76
2018-07-31T07:25:17.901Z,38.23
2018-07-31T07:26:17.942Z,38.63
2018-07-31T07:27:17.847Z,38.83
2018-07-31T07:28:17.843Z,38.81
2018-07-31T07:29:17.829Z,38.69
2018-07-31T07:30:17.833Z,38.84
2018-07-31T07:31:17.788Z,38.22
2018-07-31T07:32:17.785Z,38.03
2018-07-31T07:33:17.844Z,38.28
2018-07-31T07:34:17.828Z,38.44
2018-07-31T07:35:17.728Z,37.66
2018-07-31T07:36:17.703Z,37.86
2018-07-31T07:37:17.671Z,38.22
2018-07-31T07:38:17.666Z,38.25
2018-07-31T07:39:17.727Z,38.00
2018-07-31T07:40:17.763Z,38.28
2018-07-31T07:41:17.685Z,37.88
2018-07-31T07:42:17.642Z,36.93
2018-07-31T07:43:17.595Z,37.12
2018-07-31T07:44:17.675Z,37.02
2018-07-31T07:45:17.560Z,37.34
2018-07-31T07:46:17.578Z,37.32
2018-07-31T07:47:17.582Z,37.34
2018-07-31T07:48:17.606Z,37.18
2018-07-31T07:49:17.505Z,36.95
2018-07-31T07:50:17.475Z,36.98
2018-07-31T07:51:17.497Z,37.03
2018-07-31T07:52:17.475Z,37.57
2018-07-31T07:53:17.445Z,38.06
2018-07-31T07:54:17.533Z,38.18
2018-07-31T07:55:17.448Z,38.30
2018-07-31T07:56:17.399Z,38.25
2018-07-31T07:57:17.381Z,37.74
2018-07-31T07:58:17.373Z,37.84
2018-07-31T07:59:17.351Z,38.23
2018-07-31T08:00:17.349Z,38.38
2018-07-31T08:01:17.338Z,38.20
2018-07-31T08:02:17.348Z,38.37
2018-07-31T08:03:17.319Z,38.63
2018-07-31T08:04:17.332Z,38.91
2018-07-31T08:05:17.267Z,39.10
2018-07-31T08:06:17.275Z,38.49
2018-07-31T08:07:17.261Z,38.34
2018-07-31T08:08:17.236Z,38.49
2018-07-31T08:09:17.207Z,38.83
2018-07-31T08:10:17.208Z,38.66
2018-07-31T08:11:17.174Z,38.75
2018-07-31T08:12:17.149Z,38.90
2018-07-31T08:13:17.153Z,38.60
2018-07-31T08:14:17.156Z,38.50
2018-07-31T08:15:17.114Z,38.41
2018-07-31T08:16:17.185Z,38.37
2018-07-31T08:17:17.105Z,38.47
2018-07-31T08:18:17.115Z,38.52
2018-07-31T08:19:17.074Z,38.83
2018-07-31T08:20:17.144Z,38.79
2018-07-31T08:21:17.064Z,38.79
2018-07-31T08:22:17.058Z,38.57
2018-07-31T08:23:17.019Z,38.66
2018-07-31T08:24:17.026Z,38.81
2018-07-31T08:25:16.992Z,39.21
2018-07-31T08:26:16.987Z,39.59
2018-07-31T08:27:16.990Z,39.47
2018-07-31T08:28:16.994Z,39.18
2018-07-31T08:29:16.995Z,39.29
2018-07-31T08:30:16.926Z,38.93
2018-07-31T08:31:16.903Z,39.32
2018-07-31T08:32:16.892Z,39.18
2018-07-31T08:33:16.941Z,39.48
2018-07-31T08:34:17.706Z,39.21
2018-07-31T08:35:16.856Z,39.35
2018-07-31T08:36:16.843Z,39.22
2018-07-31T08:37:16.819Z,38.86
2018-07-31T08:38:16.826Z,39.11
2018-07-31T08:39:16.848Z,38.90
2018-07-31T08:40:16.790Z,39.23
2018-07-31T08:41:16.797Z,39.69
2018-07-31T08:42:16.761Z,39.64
2018-07-31T08:43:16.779Z,39.78
2018-07-31T08:44:16.718Z,39.70
2018-07-31T08:45:16.708Z,40.18
2018-07-31T08:46:16.702Z,40.69
2018-07-31T08:47:16.704Z,41.06
2018-07-31T08:48:16.739Z,40.89
2018-07-31T08:49:16.660Z,41.14
2018-07-31T08:50:16.652Z,41.30
2018-07-31T08:51:16.652Z,41.13
2018-07-31T08:52:16.632Z,40.76
2018-07-31T08:53:16.623Z,40.65
2018-07-31T08:54:16.600Z,40.69
2018-07-31T08:55:16.585Z,40.77
2018-07-31T08:56:16.578Z,40.77
2018-07-31T08:57:16.553Z,40.94
2018-07-31T08:58:16.589Z,40.69
2018-07-31T08:59:16.546Z,40.12
2018-07-31T09:00:16.529Z,40.22
2018-07-31T09:01:16.512Z,40.19
2018-07-31T09:02:16.505Z,39.96
2018-07-31T09:03:16.517Z,39.98
2018-07-31T09:04:16.493Z,40.13
2018-07-31T09:05:16.463Z,40.00
2018-07-31T09:06:16.449Z,39.77
2018-07-31T09:07:16.438Z,39.75
2018-07-31T09:08:16.485Z,39.98
2018-07-31T09:09:16.437Z,40.01
2018-07-31T09:10:16.407Z,40.13
2018-07-31T09:11:16.384Z,40.26
2018-07-31T09:12:16.377Z,40.35
2018-07-31T09:13:16.381Z,40.76
2018-07-31T09:14:16.354Z,40.80
2018-07-31T09:15:16.372Z,40.82
2018-07-31T09:16:16.370Z,40.77
2018-07-31T09:17:16.310Z,41.21
2018-07-31T09:18:16.302Z,41.71
2018-07-31T09:19:16.306Z,41.98
2018-07-31T09:20:16.298Z,41.70
2018-07-31T09:21:16.323Z,41.20
2018-07-31T09:22:16.271Z,40.04
2018-07-31T09:23:16.281Z,39.67
2018-07-31T09:24:16.239Z,40.00
2018-07-31T09:25:16.246Z,40.23
2018-07-31T09:26:16.243Z,40.80
2018-07-31T09:27:16.207Z,41.18
2018-07-31T09:28:16.222Z,41.49
2018-07-31T09:29:16.182Z,41.49
2018-07-31T09:30:16.174Z,41.82
2018-07-31T09:31:16.170Z,41.41
2018-07-31T09:32:16.163Z,40.64
2018-07-31T09:33:16.177Z,40.35
2018-07-31T09:34:16.122Z,40.54
2018-07-31T09:35:16.107Z,40.69
2018-07-31T09:36:16.308Z,40.69
2018-07-31T09:37:16.105Z,40.25
2018-07-31T09:38:16.064Z,39.41
2018-07-31T09:39:16.057Z,39.26
2018-07-31T09:40:16.047Z,39.59
2018-07-31T09:41:16.062Z,39.16
2018-07-31T09:42:16.070Z,39.77
2018-07-31T09:43:16.056Z,40.23
2018-07-31T09:44:16.021Z,40.25
2018-07-31T09:45:16.014Z,40.62
2018-07-31T09:46:15.977Z,40.79
2018-07-31T09:47:15.983Z,40.80
2018-07-31T09:48:16.000Z,40.80
2018-07-31T09:49:15.965Z,41.02
2018-07-31T09:50:15.973Z,41.48
2018-07-31T09:51:15.954Z,40.76
2018-07-31T09:52:16.083Z,40.10
2018-07-31T09:53:15.917Z,39.55
2018-07-31T09:54:15.974Z,38.93
2018-07-31T09:55:15.931Z,38.35
2018-07-31T09:56:15.848Z,37.41
2018-07-31T09:57:15.884Z,36.65
2018-07-31T09:58:15.857Z,36.60
2018-07-31T09:59:15.921Z,37.75
2018-07-31T10:00:15.844Z,38.59
2018-07-31T10:01:15.785Z,39.40
2018-07-31T10:02:15.781Z,40.00
2018-07-31T10:03:15.773Z,40.58
2018-07-31T10:04:15.784Z,40.99
2018-07-31T10:05:15.776Z,40.58
2018-07-31T10:06:15.732Z,40.77
2018-07-31T10:07:15.702Z,41.25
2018-07-31T10:08:15.697Z,41.39
2018-07-31T10:09:15.737Z,41.20
2018-07-31T10:10:15.647Z,41.55
2018-07-31T10:11:15.653Z,41.93
2018-07-31T10:12:15.680Z,42.31
2018-07-31T10:13:15.635Z,42.62
2018-07-31T10:14:15.664Z,42.49
2018-07-31T10:15:15.662Z,41.89
2018-07-31T10:16:15.581Z,41.90
2018-07-31T10:17:15.650Z,42.02
2018-07-31T10:18:15.603Z,42.12
2018-07-31T10:19:15.565Z,41.44
2018-07-31T10:20:15.562Z,41.30
2018-07-31T10:21:15.539Z,40.54
2018-07-31T10:22:15.516Z,40.46
2018-07-31T10:23:15.516Z,40.94
2018-07-31T10:24:15.519Z,40.60
2018-07-31T10:25:15.467Z,40.76
2018-07-31T10:26:15.445Z,40.03
2018-07-31T10:27:15.434Z,40.57
2018-07-31T10:28:15.432Z,41.06
2018-07-31T10:29:15.412Z,40.76
2018-07-31T10:30:15.393Z,40.57
2018-07-31T10:31:15.387Z,40.62
2018-07-31T10:32:15.393Z,40.65
2018-07-31T10:33:15.373Z,40.91
2018-07-31T10:34:15.351Z,40.55
2018-07-31T10:35:15.363Z,40.10
2018-07-31T10:36:15.333Z,40.19
2018-07-31T10:37:15.340Z,39.60
2018-07-31T10:38:15.317Z,39.13
2018-07-31T10:39:15.293Z,39.17
2018-07-31T10:40:15.320Z,38.57
2018-07-31T10:41:15.290Z,38.72
2018-07-31T10:42:15.254Z,38.86
2018-07-31T10:43:15.251Z,39.40
2018-07-31T10:44:15.265Z,39.86
2018-07-31T10:45:15.221Z,39.75
2018-07-31T10:46:15.218Z,38.95
2018-07-31T10:47:15.177Z,38.01
2018-07-31T10:48:15.201Z,37.46
2018-07-31T10:49:15.201Z,36.95
2018-07-31T10:50:15.209Z,36.56
2018-07-31T10:51:15.143Z,36.65
2018-07-31T10:52:15.136Z,36.59
2018-07-31T10:53:15.182Z,36.99
2018-07-31T10:54:15.111Z,37.97
2018-07-31T10:55:15.102Z,38.61
2018-07-31T10:56:15.080Z,38.66
2018-07-31T10:57:15.092Z,39.45
2018-07-31T10:58:15.207Z,39.96
2018-07-31T10:59:15.034Z,40.50
2018-07-31T11:00:15.064Z,40.29
2018-07-31T11:01:15.008Z,40.03
2018-07-31T11:02:14.968Z,39.81
2018-07-31T11:03:15.041Z,40.15
2018-07-31T11:04:14.977Z,39.84
2018-07-31T11:05:14.964Z,39.85
2018-07-31T11:06:14.972Z,40.54
2018-07-31T11:07:14.921Z,40.94
2018-07-31T11:08:14.931Z,40.53
2018-07-31T11:09:14.889Z,39.77
2018-07-31T11:10:14.952Z,39.84
2018-07-31T11:11:14.845Z,38.93
2018-07-31T11:12:14.850Z,38.60
2018-07-31T11:13:14.830Z,37.72
2018-07-31T11:14:14.807Z,37.15
2018-07-31T11:15:14.860Z,36.88
2018-07-31T11:16:14.783Z,37.07
2018-07-31T11:17:14.809Z,36.91
2018-07-31T11:18:14.753Z,36.41
2018-07-31T11:19:14.787Z,36.17
2018-07-31T11:20:14.800Z,36.08
2018-07-31T11:21:14.756Z,36.12
2018-07-31T11:22:14.735Z,36.05
2018-07-31T11:23:14.678Z,35.96
2018-07-31T11:24:14.678Z,35.82
2018-07-31T11:25:14.708Z,35.78
2018-07-31T11:26:14.638Z,35.94
2018-07-31T11:27:14.633Z,36.85
2018-07-31T11:28:14.618Z,37.41
2018-07-31T11:29:14.629Z,37.27
2018-07-31T11:30:14.614Z,36.99
2018-07-31T11:31:14.636Z,36.65
2018-07-31T11:32:14.530Z,36.76
2018-07-31T11:33:14.513Z,36.62
2018-07-31T11:34:14.506Z,36.39
2018-07-31T11:35:14.497Z,36.25
2018-07-31T11:36:14.497Z,36.41
2018-07-31T11:37:14.458Z,36.57
2018-07-31T11:38:14.432Z,37.03
2018-07-31T11:39:14.428Z,36.91
2018-07-31T11:40:14.454Z,36.81
2018-07-31T11:41:14.392Z,36.64
2018-07-31T11:42:14.431Z,36.64
2018-07-31T11:43:14.495Z,36.44
2018-07-31T11:44:14.350Z,36.31
2018-07-31T11:45:14.334Z,36.20
2018-07-31T11:46:14.321Z,36.00
2018-07-31T11:47:14.284Z,35.94
2018-07-31T11:48:14.260Z,35.92
2018-07-31T11:49:14.266Z,35.78
2018-07-31T11:50:14.306Z,35.66
2018-07-31T11:51:14.236Z,35.63
2018-07-31T11:52:14.227Z,35.66
2018-07-31T11:53:14.191Z,35.66
2018-07-31T11:54:14.174Z,35.70
2018-07-31T11:55:14.180Z,35.70
2018-07-31T11:56:14.123Z,35.66
2018-07-31T11:57:14.133Z,35.68
2018-07-31T11:58:14.109Z,35.52
2018-07-31T11:59:14.085Z,35.48
2018-07-31T12:00:14.072Z,35.45
2018-07-31T12:01:14.042Z,35.29
2018-07-31T12:02:14.018Z,35.25
2018-07-31T12:03:14.020Z,35.41
2018-07-31T12:04:14.078Z,35.47
2018-07-31T12:05:13.991Z,35.50
2018-07-31T12:06:13.966Z,35.53
2018-07-31T12:07:13.974Z,35.56
2018-07-31T12:08:14.014Z,35.62
2018-07-31T12:09:13.888Z,35.33
2018-07-31T12:10:13.891Z,35.44
2018-07-31T12:11:13.861Z,35.43
2018-07-31T12:12:13.911Z,35.37
2018-07-31T12:13:13.841Z,35.28
2018-07-31T12:14:13.847Z,35.37
2018-07-31T12:15:13.791Z,35.25
2018-07-31T12:16:13.846Z,35.28
2018-07-31T12:17:13.744Z,35.29
2018-07-31T12:18:13.769Z,35.26
2018-07-31T12:19:13.727Z,35.25
2018-07-31T12:20:13.693Z,35.04
2018-07-31T12:21:13.680Z,35.00
2018-07-31T12:22:13.652Z,35.14
2018-07-31T12:23:13.732Z,35.22
2018-07-31T12:24:13.624Z,35.38
2018-07-31T12:25:13.606Z,35.43
2018-07-31T12:26:13.595Z,35.74
2018-07-31T12:27:13.631Z,36.05
2018-07-31T12:28:13.546Z,36.13
2018-07-31T12:29:13.522Z,36.00
2018-07-31T12:30:13.557Z,36.13
2018-07-31T12:31:13.504Z,36.65
2018-07-31T12:32:13.469Z,36.90
2018-07-31T12:33:13.536Z,37.00
2018-07-31T12:34:13.465Z,36.95
2018-07-31T12:35:13.417Z,36.87
2018-07-31T12:36:13.387Z,36.99
2018-07-31T12:37:13.369Z,37.07
2018-07-31T12:38:13.369Z,37.37
2018-07-31T12:39:13.345Z,37.37
2018-07-31T12:40:13.325Z,37.15
2018-07-31T12:41:13.341Z,37.00
2018-07-31T12:42:13.287Z,37.22
2018-07-31T12:43:13.303Z,37.63
2018-07-31T12:44:13.291Z,37.63
2018-07-31T12:45:13.233Z,38.00
2018-07-31T12:46:13.202Z,38.06
2018-07-31T12:47:13.259Z,38.38
2018-07-31T12:48:13.214Z,38.49
2018-07-31T12:49:13.144Z,38.57
2018-07-31T12:50:13.211Z,38.78
2018-07-31T12:51:13.136Z,39.54
2018-07-31T12:52:13.139Z,40.19